Time;durP1;ratioP1;P1;durP2;ratioP2;P2;SDS_P1;SDS_P2;PMS_P1;PMS_P2;Temp;Humidity;BMP_temperature;BMP_pressure;BME280_temperature;BME280_humidity;BME280_pressure;Samples;Min_cycle;Max_cycle;Signal;HPM_P1;HPM_P2
2023/10/13 00:00:37;;;;;;;;;;;;;;;;;;5022090;28;19921;-84
2023/10/13 00:03:02;;;;;;;;;;;;;;;;;;5022982;28;19918;-84
2023/10/13 00:05:27;;;;;;;;;;;;;;;;;;5023219;28;19967;-84
2023/10/13 00:07:52;;;;;;;;;;;;;;;;;;5021702;28;19926;-83
2023/10/13 00:10:21;;;;;;;;;;;;;;;;;;5022474;28;19921;-84
2023/10/13 00:12:52;;;;;;;;;;;;;;;;;;5023622;28;19918;-85
2023/10/13 00:15:21;;;;;;;;;;;;;;;;;;5018425;28;19949;-85
2023/10/13 00:17:46;;;;;;;;;;;;;;;;;;5022469;28;19995;-85
2023/10/13 00:20:16;;;;;;;;;;;;;;;;;;5020295;28;19922;-84
2023/10/13 00:22:41;;;;;;;;;;;;;;;;;;5021806;28;19925;-84
2023/10/13 00:25:13;;;;;;;;;;;;;;;;;;5023200;28;19918;-84
2023/10/13 00:27:41;;;;;;;;;;;;;;;;;;5024552;28;19928;-83
2023/10/13 00:32:47;;;;;;;;;;;;;;;;;;5024181;28;19918;-84
2023/10/13 00:35:14;;;;;;;;;;;;;;;;;;5022918;28;19918;-84
2023/10/13 00:37:44;;;;;;;;;;;;;;;;;;5023735;28;19936;-85
2023/10/13 00:45:48;;;;;;;;;;;;;;;;;;5023634;28;19952;-86
2023/10/13 00:48:14;;;;;;;;;;;;;;;17.79;nan;100302.53;5018905;28;20379;-86
2023/10/13 00:50:40;;;;;;;;;;;;;;;;;;5020007;28;20213;-84
2023/10/13 00:53:06;;;;;;;;;;;;;;;;;;5019983;28;19924;-85
2023/10/13 00:55:33;;;;;;;;;;;;;;;;;;5020519;28;19921;-85
2023/10/13 00:57:59;;;;;;;;;;;;;;;;;;5019891;28;19917;-86
2023/10/13 01:00:28;;;;;;;;;;;;;;;;;;5019610;28;19934;-86
2023/10/13 01:02:56;;;;;;;;;;;;;;;;;;5020468;28;19917;-87
2023/10/13 01:05:21;;;;;;;;;;;;;;;;;;5020651;28;20020;-86
2023/10/13 01:07:50;;;;;;;;;;;;;;;;;;5021682;28;19949;-84
2023/10/13 01:10:15;;;;;;;;;;;;;;;;;;5020296;28;19921;-84
2023/10/13 01:12:42;;;;;;;;;;;;;;;;;;5021941;28;19942;-84
2023/10/13 01:15:10;;;;;;;;;;;;;;;;;;5021028;28;19929;-85
2023/10/13 01:17:36;;;;;;;;;;;;;;;;;;5020153;28;19918;-86
2023/10/13 01:20:01;;;;;;;;;;;;;;;;;;5018029;28;20332;-84
2023/10/13 01:22:31;;;;;;;;;;;;;;;;;;5018080;28;19926;-85
2023/10/13 01:25:04;;;;;;;;;;;;;;;18.09;nan;100264.69;5018995;28;20063;-85
2023/10/13 01:27:30;;;;;;;;;;;;;;;;;;5012889;28;19921;-85
2023/10/13 01:30:09;;;;;;;;;;;;;;;;;;5018836;28;19932;-86
2023/10/13 01:32:40;;;;;;;;;;;;;;;;;;5012069;28;19960;-85
2023/10/13 01:35:06;;;;;;;;;;;;;;;18.09;nan;100248.63;5021559;28;20081;-87
2023/10/13 01:37:31;;;;;;;;;;;;;;;;;;5019957;28;19917;-85
2023/10/13 01:39:56;;;;;;;;;;;;;;;;;;5018125;28;19973;-86
2023/10/13 01:42:24;;;;;;;;;;;;;;;;;;5019649;28;20468;-85
2023/10/13 01:44:49;;;;;;;;;;;;;;;;;;5019990;28;19918;-87
2023/10/13 01:47:16;;;;;;;;;;;;;;;;;;5019993;28;19928;-85
2023/10/13 01:49:42;;;;;;;;;;;;;;;;;;5019173;28;20178;-85
2023/10/13 01:52:08;;;;;;;;;;;;;;;;;;5018979;28;20079;-85
2023/10/13 01:54:33;;;;;;;;;;;;;;;;;;5019107;28;20197;-86
2023/10/13 01:56:59;;;;;;;;;;;;;;;;;;5018341;28;20001;-86
2023/10/13 01:59:26;;;;;;;;;;;;;;;;;;5019174;28;19921;-86
2023/10/13 02:01:51;;;;;;;;;;;;;;;;;;5019360;28;19953;-86
2023/10/13 02:04:21;;;;;;;;;;;;;;;;;;5018292;28;20138;-85
2023/10/13 02:06:46;;;;;;;;;;;;;;;;;;5018705;28;19922;-85
2023/10/13 02:09:17;;;;;;;;;;;;;;;;;;5019272;28;19980;-87
2023/10/13 02:11:42;;;;;;;;;;;;;;;;;;5017692;28;19925;-86
2023/10/13 02:14:07;;;;;;;;;;;;;;;;;;5017590;28;19975;-86
2023/10/13 02:16:32;;;;;;;;;;;;;;;;;;5018504;28;19924;-87
2023/10/13 02:19:03;;;;;;;;;;;;;;;;;;5017191;28;19921;-86
2023/10/13 02:21:31;;;;;;;;;;;;;;;18.33;nan;100218.53;5016413;28;20100;-85
2023/10/13 02:23:59;;;;;;;;;;;;;;;;;;5018431;28;19917;-86
2023/10/13 02:26:31;;;;;;;;;;;;;;;18.29;nan;100232.56;5015275;28;20016;-85
2023/10/13 02:28:57;;;;;;;;;;;;;;;;;;5018535;28;19921;-85
2023/10/13 02:31:24;;;;;;;;;;;;;;;;;;5017738;28;19936;-84
2023/10/13 02:33:49;;;;;;;;;;;;;;;;;;5015512;28;19921;-86
2023/10/13 02:36:22;;;;;;;;;;;;;;;;;;5016259;28;19984;-86
2023/10/13 02:38:47;;;;;;;;;;;;;;;;;;5019413;28;19929;-85
2023/10/13 02:41:12;;;;;;;;;;;;;;;;;;5021949;28;19925;-87
2023/10/13 02:43:37;;;;;;;;;;;;;;;;;;5021875;28;19923;-85
2023/10/13 02:46:02;;;;;;;;;;;;;;;;;;5023027;28;19932;-85
2023/10/13 02:48:39;;;;;;;;;;;;;;;;;;5024541;28;19918;-87
2023/10/13 02:51:15;;;;;;;;;;;;;;;18.20;nan;100207.84;5022971;28;19921;-86
2023/10/13 02:53:41;;;;;;;;;;;;;;;;;;5023476;28;20467;-87
2023/10/13 02:56:06;;;;;;;;;;;;;;;;;;5020333;28;19936;-86
2023/10/13 02:58:45;;;;;;;;;;;;;;;;;;5021348;28;19917;-85
2023/10/13 03:01:17;;;;;;;;;;;;;;;;;;5018001;28;20012;-87
2023/10/13 03:03:43;;;;;;;;;;;;;;;;;;5018601;28;20023;-85
2023/10/13 03:06:11;;;;;;;;;;;;;;;;;;5016554;28;20007;-86
2023/10/13 03:08:37;;;;;;;;;;;;;;;18.37;nan;100222.41;5017495;28;19917;-86
2023/10/13 03:11:05;;;;;;;;;;;;;;;;;;5017312;28;19921;-86
2023/10/13 03:13:33;;;;;;;;;;;;;;;;;;5018124;28;19917;-86
2023/10/13 03:15:58;;;;;;;;;;;;;;;;;;5016427;28;20005;-85
2023/10/13 03:18:24;;;;;;;;;;;;;;;;;;5016791;28;19968;-85
2023/10/13 03:20:56;;;;;;;;;;;;;;;;;;5017463;28;20083;-85
2023/10/13 03:23:21;;;;;;;;;;;;;;;18.12;nan;100179.47;5017268;28;20206;-85
2023/10/13 03:25:49;;;;;;;;;;;;;;;;;;5016673;28;19972;-86
2023/10/13 03:28:17;;;;;;;;;;;;;;;;;;5016683;28;20280;-85
2023/10/13 03:30:42;;;;;;;;;;;;;;;;;;5017355;28;19972;-85
2023/10/13 03:33:09;;;;;;;;;;;;;;;;;;5019705;28;19922;-85
2023/10/13 03:35:38;;;;;;;;;;;;;;;18.04;nan;100172.50;5013723;28;19917;-85
2023/10/13 03:38:03;;;;;;;;;;;;;;;;;;5021579;28;20008;-86
2023/10/13 03:43:07;;;;;;;;;;;;;;;;;;5023440;28;19918;-85
2023/10/13 03:45:39;;;;;;;;;;;;;;;;;;5023333;28;20435;-86
2023/10/13 03:48:08;;;;;;;;;;;;;;;;;;5021287;28;19917;-85
2023/10/13 03:50:35;;;;;;;;;;;;;;;;;;5018894;28;19971;-86
2023/10/13 03:53:00;;;;;;;;;;;;;;;;;;5022383;28;19932;-87
2023/10/13 03:55:29;;;;;;;;;;;;;;;18.19;nan;100153.53;5020970;28;19976;-85
2023/10/13 03:57:54;;;;;;;;;;;;;;;;;;5024450;28;20370;-86
2023/10/13 04:00:26;;;;;;;;;;;;;;;;;;5020893;28;20449;-86
2023/10/13 04:03:07;;;;;;;;;;;;;;;;;;5023072;28;19921;-86
2023/10/13 04:05:40;;;;;;;;;;;;;;;;;;5021346;28;19917;-86
2023/10/13 04:21:39;;;;;;;;;;;;;;;;;;5022388;28;19925;-84
2023/10/13 04:24:39;;;;;;;;;;;;;;;;;;5023187;28;20037;-86
2023/10/13 04:29:48;;;;;;;;;;;;;;;18.51;nan;100131.34;5023378;28;20084;-85
2023/10/13 04:32:14;;;;;;;;;;;;;;;;;;5019616;28;19929;-84
2023/10/13 04:34:45;;;;;;;;;;;;;;;;;;5023610;28;19918;-85
2023/10/13 04:37:28;;;;;;;;;;;;;;;;;;5024540;28;19959;-84
2023/10/13 04:39:59;;;;;;;;;;;;;;;;;;5016369;28;19929;-84
2023/10/13 04:42:39;;;;;;;;;;;;;;;18.43;nan;100121.72;5022723;28;20017;-84
2023/10/13 04:45:16;;;;;;;;;;;;;;;18.49;nan;100128.06;5022509;28;19918;-84
2023/10/13 04:47:47;;;;;;;;;;;;;;;18.50;nan;100113.66;5021677;28;19928;-85
2023/10/13 04:50:22;;;;;;;;;;;;;;;;;;5021374;28;19921;-85
2023/10/13 04:53:01;;;;;;;;;;;;;;;18.56;nan;100104.75;5016228;28;19922;-85
2023/10/13 04:55:43;;;;;;;;;;;;;;;;;;5022152;28;19922;-85
2023/10/13 04:58:14;;;;;;;;;;;;;;;18.58;nan;100091.97;5022809;28;19921;-85
2023/10/13 05:44:32;;;;;;;;;;;;;;;18.62;nan;100088.66;5016169;28;19928;-85
2023/10/13 05:44:55;;;;;;;;;;;;;;;18.16;nan;100067.47;5020467;28;19975;-85
2023/10/13 06:28:40;;;;;;;;;;;;;;;18.19;nan;100077.78;5017322;28;20341;-84
2023/10/13 06:31:05;;;;;;;;;;;;;;;;;;5012170;28;19932;-84
2023/10/13 06:33:33;;;;;;;;;;;;;;;;;;5022230;28;20322;-85
2023/10/13 06:35:59;;;;;;;;;;;;;;;18.27;nan;100084.72;5018413;28;19922;-84
2023/10/13 06:38:24;;;;;;;;;;;;;;;;;;5015874;28;19928;-84
2023/10/13 06:40:50;;;;;;;;;;;;;;;;;;5016255;28;20458;-84
2023/10/13 06:43:21;;;;;;;;;;;;;;;;;;5016170;28;19976;-85
2023/10/13 06:46:33;;;;;;;;;;;;;;;18.42;nan;100087.94;5013686;28;19921;-85
2023/10/13 06:48:40;;;;;;;;;;;;;;;;;;5017005;28;19940;-85
2023/10/13 06:51:17;;;;;;;;;;;;;;;18.94;nan;100106.63;5013028;28;20234;-85
2023/10/13 06:53:46;;;;;;;;;;;;;;;19.16;nan;100115.91;5010407;28;20008;-86
2023/10/13 06:56:16;;;;;;;;;;;;;;;19.36;nan;100120.31;5011145;28;20239;-85
2023/10/13 06:58:44;;;;;;;;;;;;;;;19.59;nan;100125.84;5014024;28;19932;-85
2023/10/13 07:01:14;;;;;;;;;;;;;;;19.80;nan;100127.34;4999935;28;20035;-87
2023/10/13 07:03:40;;;;;;;;;;;;;;;19.96;nan;100117.91;5018868;28;19931;-85
2023/10/13 07:06:10;;;;;;;;;;;;;;;20.14;nan;100128.63;5017499;28;19921;-87
2023/10/13 07:08:37;;;;;;;;;;;;;;;20.25;nan;100126.22;5013426;28;19948;-86
2023/10/13 07:11:05;;;;;;;;;;;;;;;20.34;nan;100133.75;5014579;28;19930;-86
2023/10/13 07:13:30;;;;;;;;;;;;;;;20.47;nan;100124.69;5021189;28;19998;-86
2023/10/13 07:16:05;;;;;;;;;;;;;;;20.44;nan;100122.47;5014348;28;20178;-86
2023/10/13 07:18:36;;;;;;;;;;;;;;;20.37;nan;100111.00;5019578;28;19991;-86
2023/10/13 07:21:09;;;;;;;;;;;;;;;20.26;nan;100125.19;5014313;28;19925;-87
2023/10/13 07:23:35;;;;;;;;;;;;;;;20.18;nan;100122.81;5016917;28;20007;-87
2023/10/13 07:26:04;;;;;;;;;;;;;;;20.14;nan;100127.78;5015266;28;19930;-86
2023/10/13 07:28:51;;;;;;;;;;;;;;;20.13;nan;100126.97;5014040;28;19928;-87
2023/10/13 07:31:15;;;;;;;;;;;;;;;20.13;nan;100121.59;5014193;28;19929;-86
2023/10/13 07:33:41;;;;;;;;;;;;;;;20.17;nan;100135.41;5015074;28;19921;-87
2023/10/13 07:36:11;;;;;;;;;;;;;;;20.18;nan;100122.81;5012017;28;20176;-87
2023/10/13 07:38:37;;;;;;;;;;;;;;;20.13;nan;100115.44;5012914;28;19994;-88
2023/10/13 07:41:09;;;;;;;;;;;;;;;20.10;nan;100116.69;5015256;28;19996;-87
2023/10/13 07:43:34;;;;;;;;;;;;;;;20.11;nan;100115.63;5003133;28;19928;-88
2023/10/13 07:46:06;;;;;;;;;;;;;;;20.14;nan;100125.94;5017978;28;19925;-87
2023/10/13 07:48:31;;;;;;;;;;;;;;;20.22;nan;100113.28;5019827;28;19968;-87
2023/10/13 07:51:11;;;;;;;;;;;;;;;20.29;nan;100101.41;5017253;28;20260;-87
2023/10/13 07:53:40;;;;;;;;;;;;;;;20.35;nan;100111.25;5015898;28;20379;-87
2023/10/13 07:56:08;;;;;;;;;;;;;;;20.41;nan;100106.81;5016418;28;19944;-89
2023/10/13 07:58:33;;;;;;;;;;;;;;;20.55;nan;100113.69;5020008;28;19929;-87
2023/10/13 08:04:28;;;;;;;;;;;;;;;20.94;nan;100111.47;5019878;28;19933;-87
2023/10/13 08:08:49;;;;;;;;;;;;;;;21.37;nan;100109.53;5016958;28;20297;-86
2023/10/13 08:11:25;;;;;;;;;;;;;;;21.50;nan;100135.41;5012988;28;20011;-87
2023/10/13 08:13:59;;;;;;;;;;;;;;;21.54;nan;100142.78;5024982;28;20036;-87
2023/10/13 08:16:45;;;;;;;;;;;;;;;21.62;nan;100129.00;5009393;28;19921;-86
2023/10/13 08:19:10;;;;;;;;;;;;;;;;;;5010439;28;20377;-85
2023/10/13 08:21:37;;;;;;;;;;;;;;;22.32;nan;100142.63;5007077;28;19936;-86
2023/10/13 08:24:06;;;;;;;;;;;;;;;22.59;nan;100143.69;5011631;28;19921;-85
2023/10/13 08:32:36;;;;;;;;;;;;;;;24.32;nan;100161.03;5012402;28;19922;-86
2023/10/13 08:42:52;;;;;;;;;;;;;;;25.91;nan;100165.25;5009062;28;19925;-86
2023/10/13 08:45:53;;;;;;;;;;;;;;;26.41;nan;100163.84;5000151;28;19929;-86
2023/10/13 08:48:13;;;;;;;;;;;;;;;26.41;nan;100147.56;5009478;28;19929;-87
2023/10/13 08:53:27;;;;;;;;;;;;;;;26.68;nan;100152.81;5012528;28;20017;-85
2023/10/13 08:56:32;;;;;;;;;;;;;;;26.98;nan;100156.69;5009643;28;20186;-86
2023/10/13 09:01:48;;;;;;;;;;;;;;;26.56;nan;100143.31;5011615;28;19988;-85
2023/10/13 09:09:35;;;;;;;;;;;;;;;26.94;nan;100144.72;5010552;28;19925;-86
2023/10/13 09:12:08;;;;;;;;;;;;;;;26.61;nan;100140.59;5008839;28;19975;-85
2023/10/13 09:14:42;;;;;;;;;;;;;;;26.18;nan;100140.69;5006535;28;19922;-85
2023/10/13 09:17:11;;;;;;;;;;;;;;;25.57;nan;100138.44;5009620;28;20298;-84
2023/10/13 09:19:46;;;;;;;;;;;;;;;24.96;nan;100121.72;5009080;28;21138;-84
2023/10/13 09:22:24;;;;;;;;;;;;;;;24.55;nan;100124.00;5004398;28;19932;-83
2023/10/13 09:24:51;;;;;;;;;;;;;;;24.26;nan;100118.78;5009028;28;19987;-83
2023/10/13 09:27:16;;;;;;;;;;;;;;;24.07;nan;100109.38;5013007;28;19921;-86
2023/10/13 09:29:42;;;;;;;;;;;;;;;;;;5014904;28;20292;-86
2023/10/13 09:32:11;;;;;;;;;;;;;;;23.84;nan;100100.44;5012138;28;19921;-84
2023/10/13 09:34:40;;;;;;;;;;;;;;;23.67;nan;100084.28;5010129;28;19957;-83
2023/10/13 09:37:06;;;;;;;;;;;;;;;23.65;nan;100074.78;5010381;28;19968;-83
2023/10/13 09:39:44;;;;;;;;;;;;;;;23.61;nan;100069.06;5011537;28;20554;-82
2023/10/13 09:42:10;;;;;;;;;;;;;;;23.51;nan;100063.53;5008353;28;20395;-84
2023/10/13 09:44:40;;;;;;;;;;;;;;;23.48;nan;100064.84;5011395;28;20184;-84
2023/10/13 09:47:08;;;;;;;;;;;;;;;23.39;nan;100071.72;5010634;28;20371;-84
2023/10/13 09:49:47;;;;;;;;;;;;;;;23.44;nan;100052.09;5013112;28;20330;-83
2023/10/13 09:52:25;;;;;;;;;;;;;;;23.49;nan;100054.84;5008909;28;19929;-85
2023/10/13 09:55:00;;;;;;;;;;;;;;;23.50;nan;100046.53;5012897;28;20040;-84
2023/10/13 09:57:29;;;;;;;;;;;;;;;24.18;nan;100057.09;5012402;28;19936;-84
2023/10/13 09:59:56;;;;;;;;;;;;;;;;;;5011949;28;20564;-85
2023/10/13 10:02:27;;;;;;;;;;;;;;;26.98;nan;100069.84;5010081;28;19961;-85
2023/10/13 10:04:53;;;;;;;;;;;;;;;27.93;nan;100073.75;5010335;28;19925;-85
2023/10/13 10:07:28;;;;;;;;;;;;;;;28.77;nan;100081.97;5011596;28;20012;-85
2023/10/13 10:09:56;;;;;;;;;;;;;;;29.21;nan;100083.81;5010950;28;19925;-85
2023/10/13 10:12:38;;;;;;;;;;;;;;;29.56;nan;100077.19;5009052;28;19943;-84
2023/10/13 10:15:05;;;;;;;;;;;;;;;30.09;nan;100073.59;5011553;28;19922;-85
2023/10/13 10:17:38;;;;;;;;;;;;;;;30.51;nan;100085.59;5005075;28;19922;-85
2023/10/13 10:20:14;;;;;;;;;;;;;;;30.89;nan;100074.63;5011243;28;19928;-85
2023/10/13 10:22:44;;;;;;;;;;;;;;;31.41;nan;100091.78;5006005;28;20326;-85
2023/10/13 10:25:24;;;;;;;;;;;;;;;31.84;nan;100082.47;5009218;28;19929;-85
2023/10/13 10:27:58;;;;;;;;;;;;;;;31.71;nan;100095.03;5012299;28;19922;-84
2023/10/13 10:30:24;;;;;;;;;;;;;;;32.21;nan;100091.59;5009484;28;19957;-85
2023/10/13 10:32:53;;;;;;;;;;;;;;;32.28;nan;100087.31;5009879;28;20304;-86
2023/10/13 10:35:22;;;;;;;;;;;;;;;31.41;nan;100083.56;5005720;28;19922;-85
2023/10/13 10:37:48;;;;;;;;;;;;;;;30.60;nan;100064.69;5008095;28;19928;-86
2023/10/13 10:40:41;;;;;;;;;;;;;;;30.22;nan;100058.41;5013541;28;19921;-85
2023/10/13 10:43:08;;;;;;;;;;;;;;;29.33;nan;100053.47;5008438;28;19967;-84
2023/10/13 10:45:45;;;;;;;;;;;;;;;28.83;nan;100050.09;5009850;28;19964;-85
2023/10/13 10:48:18;;;;;;;;;;;;;;;28.23;nan;100055.66;5003761;28;19925;-85
2023/10/13 10:50:55;;;;;;;;;;;;;;;27.79;nan;100035.44;5004353;28;20012;-85
2023/10/13 10:53:22;;;;;;;;;;;;;;;27.32;nan;100032.09;5017626;28;19929;-85
2023/10/13 10:55:47;;;;;;;;;;;;;;;27.20;nan;100022.63;5011934;28;20315;-85
2023/10/13 10:58:28;;;;;;;;;;;;;;;27.27;nan;100018.53;5012111;28;19921;-85
2023/10/13 11:01:09;;;;;;;;;;;;;;;27.13;nan;100008.50;5011581;28;19926;-85
2023/10/13 11:03:37;;;;;;;;;;;;;;;27.14;nan;100002.78;5011991;28;19925;-85
2023/10/13 11:06:03;;;;;;;;;;;;;;;27.14;nan;99997.34;5008154;28;19921;-86
2023/10/13 11:08:31;;;;;;;;;;;;;;;27.10;nan;99996.25;5009797;28;19971;-85
2023/10/13 11:10:57;;;;;;;;;;;;;;;27.03;nan;99985.72;5006323;28;19932;-85
2023/10/13 11:13:22;;;;;;;;;;;;;;;26.89;nan;99985.47;5008525;28;19921;-85
2023/10/13 11:15:48;;;;;;;;;;;;;;;26.86;nan;99986.00;5010035;28;19971;-85
2023/10/13 11:18:20;;;;;;;;;;;;;;;26.84;nan;99984.63;5010602;28;20005;-85
2023/10/13 11:20:46;;;;;;;;;;;;;;;26.67;nan;99977.63;5014585;28;19929;-85
2023/10/13 11:23:12;;;;;;;;;;;;;;;26.59;nan;99974.63;5012341;28;20290;-85
2023/10/13 11:25:37;;;;;;;;;;;;;;;26.57;nan;99972.19;5011254;28;20300;-85
2023/10/13 11:28:27;;;;;;;;;;;;;;;26.52;nan;99974.06;5006509;28;19922;-85
2023/10/13 11:30:54;;;;;;;;;;;;;;;26.47;nan;99977.56;5013644;28;19988;-84
2023/10/13 11:33:27;;;;;;;;;;;;;;;26.41;nan;99974.06;5011714;28;20060;-85
2023/10/13 11:38:27;;;;;;;;;;;;;;;26.42;nan;99969.44;5013339;28;19922;-84
2023/10/13 11:49:17;;;;;;;;;;;;;;;26.32;nan;99962.13;5015318;28;20025;-86
2023/10/13 11:51:46;;;;;;;;;;;;;;;26.25;nan;99953.44;5015761;28;19932;-85
2023/10/13 11:54:15;;;;;;;;;;;;;;;26.30;nan;99947.22;5017910;28;19928;-85
2023/10/13 11:56:40;;;;;;;;;;;;;;;26.30;nan;99939.91;5016482;28;20342;-85
2023/10/13 11:59:06;;;;;;;;;;;;;;;26.26;nan;99945.03;5013060;28;19988;-85
2023/10/13 12:10:33;;;;;;;;;;;;;;;26.25;nan;99910.06;5003069;28;20048;-86
2023/10/13 12:13:05;;;;;;;;;;;;;;;;;;5014548;28;19926;-86
2023/10/13 12:15:36;;;;;;;;;;;;;;;26.72;nan;99911.72;5019063;28;20138;-86
2023/10/13 12:18:03;;;;;;;;;;;;;;;26.92;nan;99918.19;5011195;28;19922;-87
2023/10/13 12:20:35;;;;;;;;;;;;;;;26.95;nan;99901.34;5012781;28;20398;-86
2023/10/13 12:23:15;;;;;;;;;;;;;;;26.97;nan;99899.16;5009491;28;19964;-86
2023/10/13 12:25:59;;;;;;;;;;;;;;;26.97;nan;99899.97;5016858;28;19921;-86
2023/10/13 12:28:26;;;;;;;;;;;;;;;26.96;nan;99898.34;5030170;28;19929;-86
2023/10/13 12:30:52;;;;;;;;;;;;;;;26.84;nan;99884.25;5014736;28;20383;-86
2023/10/13 12:33:24;;;;;;;;;;;;;;;26.64;nan;99877.00;5014937;28;19975;-86
2023/10/13 12:38:37;;;;;;;;;;;;;;;26.56;nan;99872.13;5020292;28;20353;-86
2023/10/13 12:49:38;;;;;;;;;;;;;;;26.78;nan;99863.69;5016121;28;20041;-85
2023/10/13 12:52:01;;;;;;;;;;;;;;;26.79;nan;99865.28;5016192;28;20359;-86
2023/10/13 12:54:35;;;;;;;;;;;;;;;26.81;nan;99847.66;5014765;28;19936;-86
2023/10/13 12:57:00;;;;;;;;;;;;;;;;;;5016583;28;19972;-85
2023/10/13 12:59:26;;;;;;;;;;;;;;;27.14;nan;99850.78;5013456;28;19921;-85
2023/10/13 13:01:52;;;;;;;;;;;;;;;27.39;nan;99851.78;5012084;28;20303;-86
2023/10/13 13:04:20;;;;;;;;;;;;;;;27.70;nan;99847.78;5010240;28;19968;-86
2023/10/13 13:06:45;;;;;;;;;;;;;;;27.91;nan;99839.50;5013337;28;19945;-86
2023/10/13 13:09:11;;;;;;;;;;;;;;;27.94;nan;99847.13;5013685;28;19921;-86
2023/10/13 13:11:42;;;;;;;;;;;;;;;28.11;nan;99846.69;5014435;28;20517;-86
2023/10/13 13:14:08;;;;;;;;;;;;;;;28.25;nan;99835.97;5012268;28;19925;-86
2023/10/13 13:16:33;;;;;;;;;;;;;;;28.26;nan;99841.13;5013821;28;19921;-87
2023/10/13 13:18:59;;;;;;;;;;;;;;;;;;5014201;28;20012;-86
2023/10/13 13:21:24;;;;;;;;;;;;;;;28.22;nan;99842.81;5009946;28;19929;-85
2023/10/13 13:23:54;;;;;;;;;;;;;;;28.01;nan;99835.91;5013654;28;20291;-86
2023/10/13 13:26:19;;;;;;;;;;;;;;;27.89;nan;99817.28;5005135;28;19922;-86
2023/10/13 13:28:46;;;;;;;;;;;;;;;27.87;nan;99809.38;5012211;28;20287;-86
2023/10/13 13:31:15;;;;;;;;;;;;;;;27.86;nan;99826.78;5011690;28;20584;-86
2023/10/13 13:33:43;;;;;;;;;;;;;;;27.86;nan;99823.25;5012194;28;20411;-86
2023/10/13 13:36:13;;;;;;;;;;;;;;;27.82;nan;99811.31;5014377;28;19941;-86
2023/10/13 13:38:40;;;;;;;;;;;;;;;27.76;nan;99813.25;5014660;28;19921;-86
2023/10/13 13:41:09;;;;;;;;;;;;;;;27.58;nan;99816.63;5014259;28;19929;-85
2023/10/13 13:43:37;;;;;;;;;;;;;;;27.46;nan;99809.66;5014495;28;19932;-86
2023/10/13 13:46:09;;;;;;;;;;;;;;;27.40;nan;99804.53;5015374;28;19921;-85
2023/10/13 13:48:34;;;;;;;;;;;;;;;27.42;nan;99791.50;5017554;28;20057;-85
2023/10/13 13:51:12;;;;;;;;;;;;;;;27.52;nan;99784.06;5013268;28;19925;-86
2023/10/13 13:53:42;;;;;;;;;;;;;;;27.70;nan;99798.91;5013568;28;19921;-86
2023/10/13 13:56:07;;;;;;;;;;;;;;;27.80;nan;99786.34;5018122;28;19980;-86
2023/10/13 13:58:33;;;;;;;;;;;;;;;27.85;nan;99786.31;5014156;28;19925;-85
2023/10/13 14:01:11;;;;;;;;;;;;;;;27.82;nan;99773.28;5016828;28;20375;-85
2023/10/13 14:03:40;;;;;;;;;;;;;;;27.74;nan;99772.78;5012509;28;19922;-85
2023/10/13 14:06:07;;;;;;;;;;;;;;;27.64;nan;99767.44;5011487;28;19968;-86
2023/10/13 14:08:32;;;;;;;;;;;;;;;;;;5016349;28;19968;-85
2023/10/13 14:13:52;;;;;;;;;;;;;;;27.29;nan;99760.34;5019272;28;19921;-86
2023/10/13 14:16:20;;;;;;;;;;;;;;;27.22;nan;99752.53;5032531;28;19925;-86
2023/10/13 14:18:49;;;;;;;;;;;;;;;27.22;nan;99759.84;5013004;28;19922;-85
2023/10/13 14:21:18;;;;;;;;;;;;;;;27.26;nan;99744.63;5016561;28;19940;-86
2023/10/13 14:23:47;;;;;;;;;;;;;;;27.27;nan;99741.63;5020186;28;19949;-87
2023/10/13 14:26:25;;;;;;;;;;;;;;;27.27;nan;99735.41;5017653;28;19937;-86
2023/10/13 14:29:05;;;;;;;;;;;;;;;27.33;nan;99739.69;5019061;28;19921;-85
2023/10/13 14:31:31;;;;;;;;;;;;;;;27.36;nan;99732.88;5015645;28;19925;-86
2023/10/13 14:33:59;;;;;;;;;;;;;;;27.35;nan;99736.72;5016678;28;20401;-85
2023/10/13 14:36:28;;;;;;;;;;;;;;;27.32;nan;99738.09;5018400;28;19921;-85
2023/10/13 14:38:54;;;;;;;;;;;;;;;27.31;nan;99731.81;5015962;28;19944;-86
2023/10/13 14:41:19;;;;;;;;;;;;;;;27.29;nan;99728.59;5019252;28;19933;-86
2023/10/13 14:43:47;;;;;;;;;;;;;;;27.26;nan;99729.16;5018460;28;19926;-86
2023/10/13 14:46:16;;;;;;;;;;;;;;;27.19;nan;99722.38;5016469;28;19928;-86
2023/10/13 14:48:42;;;;;;;;;;;;;;;27.14;nan;99719.72;5016546;28;19921;-85
2023/10/13 14:51:13;;;;;;;;;;;;;;;27.10;nan;99711.31;5017313;28;19991;-86
2023/10/13 14:53:43;;;;;;;;;;;;;;;27.08;nan;99710.81;5017506;28;19963;-86
2023/10/13 14:56:09;;;;;;;;;;;;;;;27.07;nan;99709.16;5014500;28;19922;-86
2023/10/13 14:58:34;;;;;;;;;;;;;;;27.03;nan;99702.66;5020391;28;19928;-85
2023/10/13 15:01:00;;;;;;;;;;;;;;;27.01;nan;99699.44;5017944;28;19949;-85
2023/10/13 15:03:26;;;;;;;;;;;;;;;26.97;nan;99693.75;5026562;28;19953;-86
2023/10/13 15:05:55;;;;;;;;;;;;;;;26.92;nan;99682.13;5020014;28;19929;-86
2023/10/13 15:08:20;;;;;;;;;;;;;;;26.91;nan;99681.34;5021398;28;20016;-85
2023/10/13 15:10:45;;;;;;;;;;;;;;;26.87;nan;99678.34;5023365;28;20469;-86
2023/10/13 15:13:10;;;;;;;;;;;;;;;26.91;nan;99673.19;5024776;28;19924;-87
2023/10/13 15:15:36;;;;;;;;;;;;;;;26.90;nan;99660.72;5025097;28;19980;-87
2023/10/13 15:18:01;;;;;;;;;;;;;;;;;;5023238;28;19924;-87
2023/10/13 15:20:26;;;;;;;;;;;;;;;26.77;nan;99645.03;5023490;28;20090;-87
2023/10/13 15:22:59;;;;;;;;;;;;;;;26.75;nan;99641.81;5024669;28;19920;-86
2023/10/13 15:25:28;;;;;;;;;;;;;;;26.73;nan;99636.69;5023174;28;19925;-87
2023/10/13 15:28:02;;;;;;;;;;;;;;;26.68;nan;99637.50;5025886;28;19924;-87
2023/10/13 15:30:42;;;;;;;;;;;;;;;;;;5025767;28;19984;-86
2023/10/13 15:33:07;;;;;;;;;;;;;;;26.60;nan;99629.97;5031270;28;19981;-86
2023/10/13 15:35:33;;;;;;;;;;;;;;;26.59;nan;99627.53;5030904;28;19929;-86
2023/10/13 15:37:58;;;;;;;;;;;;;;;26.55;nan;99627.28;5030272;28;19973;-86
2023/10/13 15:40:27;;;;;;;;;;;;;;;26.48;nan;99629.44;5029160;28;20410;-87
2023/10/13 15:42:56;;;;;;;;;;;;;;;26.41;nan;99618.09;5031081;28;19975;-86
2023/10/13 15:45:22;;;;;;;;;;;;;;;26.33;nan;99619.50;5031262;28;19917;-86
2023/10/13 15:47:47;;;;;;;;;;;;;;;26.27;nan;99616.00;5032441;28;19997;-86
2023/10/13 15:50:15;;;;;;;;;;;;;;;26.22;nan;99612.53;5030525;28;20076;-86
2023/10/13 15:52:45;;;;;;;;;;;;;;;26.16;nan;99609.00;5032712;28;19928;-86
2023/10/13 15:55:13;;;;;;;;;;;;;;;26.06;nan;99604.44;5037870;28;19921;-87
2023/10/13 15:57:39;;;;;;;;;;;;;;;25.97;nan;99599.88;5030214;28;19971;-86
2023/10/13 16:00:22;;;;;;;;;;;;;;;25.87;nan;99599.91;5031327;28;19918;-86
2023/10/13 16:02:50;;;;;;;;;;;;;;;25.69;nan;99599.38;5032083;28;20208;-86
2023/10/13 16:05:15;;;;;;;;;;;;;;;25.58;nan;99598.59;5031082;28;19932;-86
2023/10/13 16:07:41;;;;;;;;;;;;;;;25.48;nan;99587.81;5040263;28;19972;-85
2023/10/13 16:10:11;;;;;;;;;;;;;;;25.37;nan;99586.19;5031573;28;19977;-86
2023/10/13 16:12:37;;;;;;;;;;;;;;;25.25;nan;99593.78;5031647;28;19917;-87
2023/10/13 16:15:05;;;;;;;;;;;;;;;25.10;nan;99589.97;5036260;28;19949;-85
2023/10/13 16:17:31;;;;;;;;;;;;;;;24.94;nan;99593.75;5030851;28;19940;-87
2023/10/13 16:19:56;;;;;;;;;;;;;;;24.82;nan;99585.09;5031122;28;19918;-85
2023/10/13 16:22:21;;;;;;;;;;;;;;;;;;5030493;28;20029;-86
2023/10/13 16:24:47;;;;;;;;;;;;;;;24.64;nan;99572.88;5030145;28;19929;-87
2023/10/13 16:27:14;;;;;;;;;;;;;;;24.56;nan;99569.63;5031127;28;19944;-86
2023/10/13 16:29:42;;;;;;;;;;;;;;;24.48;nan;99570.16;5031260;28;19989;-86
2023/10/13 16:32:08;;;;;;;;;;;;;;;24.42;nan;99564.97;5032000;28;19977;-85
2023/10/13 16:34:34;;;;;;;;;;;;;;;24.35;nan;99560.63;5033148;28;19921;-86
2023/10/13 16:37:04;;;;;;;;;;;;;;;24.26;nan;99556.00;5032032;28;19926;-86
2023/10/13 16:39:30;;;;;;;;;;;;;;;24.21;nan;99564.09;5030825;28;19957;-86
2023/10/13 16:41:55;;;;;;;;;;;;;;;24.13;nan;99560.84;5031567;28;20197;-86
2023/10/13 16:44:26;;;;;;;;;;;;;;;24.06;nan;99562.16;5033416;28;19917;-86
2023/10/13 16:46:56;;;;;;;;;;;;;;;23.98;nan;99560.78;5035817;28;19928;-87
2023/10/13 16:49:21;;;;;;;;;;;;;;;23.93;nan;99555.34;5031966;28;20003;-86
2023/10/13 16:51:47;;;;;;;;;;;;;;;23.87;nan;99549.13;5032428;28;19906;-84
2023/10/13 16:54:12;;;;;;;;;;;;;;;23.81;nan;99555.59;5044848;28;19933;-85
2023/10/13 16:56:38;;;;;;;;;;;;;;;23.74;nan;99549.63;5032421;28;19967;-86
2023/10/13 16:59:07;;;;;;;;;;;;;;;23.68;nan;99551.44;5032657;28;19918;-86
2023/10/13 17:01:32;;;;;;;;;;;;;;;23.62;nan;99552.50;5031506;28;19985;-86
2023/10/13 17:03:58;;;;;;;;;;;;;;;23.58;nan;99555.97;5031522;28;19929;-86
2023/10/13 17:06:23;;;;;;;;;;;;;;;23.50;nan;99558.09;5030953;28;19917;-85